sensor_id;sensor_type;location;lat;lon;timestamp;P1;durP1;ratioP1;P2;durP2;ratioP2
22737;SDS011;11536;50.860;4.286;2023-06-14T00:01:17;7.70;;;3.85;;
22737;SDS011;11536;50.860;4.286;2023-06-14T00:03:45;7.47;;;3.50;;
22737;SDS011;11536;50.860;4.286;2023-06-14T00:06:12;8.25;;;3.80;;
22737;SDS011;11536;50.860;4.286;2023-06-14T00:08:38;7.88;;;4.00;;
22737;SDS011;11536;50.860;4.286;2023-06-14T00:11:04;7.53;;;3.88;;
22737;SDS011;11536;50.860;4.286;2023-06-14T00:13:30;7.07;;;3.90;;
22737;SDS011;11536;50.860;4.286;2023-06-14T00:15:56;6.78;;;4.25;;
22737;SDS011;11536;50.860;4.286;2023-06-14T00:18:22;9.57;;;4.38;;
22737;SDS011;11536;50.860;4.286;2023-06-14T00:20:51;8.20;;;4.07;;
22737;SDS011;11536;50.860;4.286;2023-06-14T00:23:17;6.68;;;4.05;;
22737;SDS011;11536;50.860;4.286;2023-06-14T00:25:43;9.02;;;4.20;;
22737;SDS011;11536;50.860;4.286;2023-06-14T00:28:08;7.50;;;4.20;;
22737;SDS011;11536;50.860;4.286;2023-06-14T00:30:34;8.45;;;4.13;;
22737;SDS011;11536;50.860;4.286;2023-06-14T00:33:01;8.45;;;4.00;;
22737;SDS011;11536;50.860;4.286;2023-06-14T00:35:26;7.53;;;3.78;;
22737;SDS011;11536;50.860;4.286;2023-06-14T00:37:52;7.65;;;3.80;;
22737;SDS011;11536;50.860;4.286;2023-06-14T00:40:19;9.27;;;4.78;;
22737;SDS011;11536;50.860;4.286;2023-06-14T00:42:46;7.30;;;4.07;;
22737;SDS011;11536;50.860;4.286;2023-06-14T00:45:12;8.85;;;4.40;;
22737;SDS011;11536;50.860;4.286;2023-06-14T00:47:38;7.30;;;3.80;;
22737;SDS011;11536;50.860;4.286;2023-06-14T00:50:10;7.88;;;4.22;;
22737;SDS011;11536;50.860;4.286;2023-06-14T00:52:36;7.82;;;3.97;;
22737;SDS011;11536;50.860;4.286;2023-06-14T00:55:03;7.88;;;3.88;;
22737;SDS011;11536;50.860;4.286;2023-06-14T00:57:29;9.02;;;4.47;;
22737;SDS011;11536;50.860;4.286;2023-06-14T00:59:55;7.85;;;3.92;;
22737;SDS011;11536;50.860;4.286;2023-06-14T01:02:20;7.78;;;4.47;;
22737;SDS011;11536;50.860;4.286;2023-06-14T01:04:47;7.22;;;4.22;;
22737;SDS011;11536;50.860;4.286;2023-06-14T01:13:08;6.88;;;3.85;;
22737;SDS011;11536;50.860;4.286;2023-06-14T01:15:40;10.10;;;4.53;;
22737;SDS011;11536;50.860;4.286;2023-06-14T01:18:07;11.07;;;4.03;;
22737;SDS011;11536;50.860;4.286;2023-06-14T01:20:42;8.80;;;4.28;;
22737;SDS011;11536;50.860;4.286;2023-06-14T01:23:10;7.45;;;4.25;;
22737;SDS011;11536;50.860;4.286;2023-06-14T01:25:39;8.63;;;4.63;;
22737;SDS011;11536;50.860;4.286;2023-06-14T01:28:06;7.10;;;3.65;;
22737;SDS011;11536;50.860;4.286;2023-06-14T01:30:35;7.80;;;4.00;;
22737;SDS011;11536;50.860;4.286;2023-06-14T01:33:11;7.97;;;4.68;;
22737;SDS011;11536;50.860;4.286;2023-06-14T01:35:38;6.22;;;3.55;;
22737;SDS011;11536;50.860;4.286;2023-06-14T01:38:04;7.68;;;4.35;;
22737;SDS011;11536;50.860;4.286;2023-06-14T01:40:31;8.88;;;4.63;;
22737;SDS011;11536;50.860;4.286;2023-06-14T01:42:59;7.55;;;3.85;;
22737;SDS011;11536;50.860;4.286;2023-06-14T01:45:26;7.60;;;4.22;;
22737;SDS011;11536;50.860;4.286;2023-06-14T01:47:52;7.75;;;4.65;;
22737;SDS011;11536;50.860;4.286;2023-06-14T01:50:19;7.35;;;4.45;;
22737;SDS011;11536;50.860;4.286;2023-06-14T01:52:45;11.18;;;4.13;;
22737;SDS011;11536;50.860;4.286;2023-06-14T01:55:11;8.82;;;4.72;;
22737;SDS011;11536;50.860;4.286;2023-06-14T01:57:36;8.35;;;4.10;;
22737;SDS011;11536;50.860;4.286;2023-06-14T02:00:03;8.68;;;4.50;;
22737;SDS011;11536;50.860;4.286;2023-06-14T02:02:35;7.00;;;4.38;;
22737;SDS011;11536;50.860;4.286;2023-06-14T02:05:01;7.45;;;4.57;;
22737;SDS011;11536;50.860;4.286;2023-06-14T02:07:26;7.63;;;4.68;;
22737;SDS011;11536;50.860;4.286;2023-06-14T02:09:52;6.28;;;4.22;;
22737;SDS011;11536;50.860;4.286;2023-06-14T02:12:18;9.95;;;3.67;;
22737;SDS011;11536;50.860;4.286;2023-06-14T02:14:43;7.25;;;4.55;;
22737;SDS011;11536;50.860;4.286;2023-06-14T02:17:09;8.10;;;4.72;;
22737;SDS011;11536;50.860;4.286;2023-06-14T02:19:35;9.43;;;5.18;;
22737;SDS011;11536;50.860;4.286;2023-06-14T02:22:01;9.82;;;4.60;;
22737;SDS011;11536;50.860;4.286;2023-06-14T02:24:26;9.93;;;4.68;;
22737;SDS011;11536;50.860;4.286;2023-06-14T02:26:52;7.38;;;4.20;;
22737;SDS011;11536;50.860;4.286;2023-06-14T02:29:17;9.43;;;4.93;;
22737;SDS011;11536;50.860;4.286;2023-06-14T02:31:43;8.20;;;4.75;;
22737;SDS011;11536;50.860;4.286;2023-06-14T02:34:09;8.30;;;4.72;;
22737;SDS011;11536;50.860;4.286;2023-06-14T02:36:34;8.40;;;4.93;;
22737;SDS011;11536;50.860;4.286;2023-06-14T02:39:07;9.60;;;5.25;;
22737;SDS011;11536;50.860;4.286;2023-06-14T02:41:34;8.30;;;4.80;;
22737;SDS011;11536;50.860;4.286;2023-06-14T02:44:00;8.95;;;4.82;;
22737;SDS011;11536;50.860;4.286;2023-06-14T02:46:25;8.27;;;5.40;;
22737;SDS011;11536;50.860;4.286;2023-06-14T02:48:51;9.40;;;5.32;;
22737;SDS011;11536;50.860;4.286;2023-06-14T02:51:17;10.18;;;5.13;;
22737;SDS011;11536;50.860;4.286;2023-06-14T02:53:42;9.02;;;5.30;;
22737;SDS011;11536;50.860;4.286;2023-06-14T02:56:08;9.02;;;5.10;;
22737;SDS011;11536;50.860;4.286;2023-06-14T02:58:36;9.77;;;5.57;;
22737;SDS011;11536;50.860;4.286;2023-06-14T03:01:01;11.57;;;5.30;;
22737;SDS011;11536;50.860;4.286;2023-06-14T03:03:28;9.05;;;4.50;;
22737;SDS011;11536;50.860;4.286;2023-06-14T03:05:53;9.50;;;5.20;;
22737;SDS011;11536;50.860;4.286;2023-06-14T03:08:19;10.88;;;5.63;;
22737;SDS011;11536;50.860;4.286;2023-06-14T03:10:46;9.90;;;5.63;;
22737;SDS011;11536;50.860;4.286;2023-06-14T03:13:12;10.45;;;5.40;;
22737;SDS011;11536;50.860;4.286;2023-06-14T03:15:38;9.00;;;5.40;;
22737;SDS011;11536;50.860;4.286;2023-06-14T03:18:06;10.75;;;4.88;;
22737;SDS011;11536;50.860;4.286;2023-06-14T03:20:37;9.60;;;5.53;;
22737;SDS011;11536;50.860;4.286;2023-06-14T03:23:02;10.27;;;5.25;;
22737;SDS011;11536;50.860;4.286;2023-06-14T03:25:30;9.32;;;5.05;;
22737;SDS011;11536;50.860;4.286;2023-06-14T03:27:56;10.05;;;4.85;;
22737;SDS011;11536;50.860;4.286;2023-06-14T03:30:22;9.32;;;4.45;;
22737;SDS011;11536;50.860;4.286;2023-06-14T03:32:48;9.30;;;5.60;;
22737;SDS011;11536;50.860;4.286;2023-06-14T03:35:13;9.35;;;5.43;;
22737;SDS011;11536;50.860;4.286;2023-06-14T03:37:42;9.95;;;5.97;;
22737;SDS011;11536;50.860;4.286;2023-06-14T03:40:08;13.65;;;5.70;;
22737;SDS011;11536;50.860;4.286;2023-06-14T03:42:34;11.70;;;5.60;;
22737;SDS011;11536;50.860;4.286;2023-06-14T03:45:00;12.80;;;6.03;;
22737;SDS011;11536;50.860;4.286;2023-06-14T03:47:25;9.75;;;5.18;;
22737;SDS011;11536;50.860;4.286;2023-06-14T03:49:52;10.75;;;5.93;;
22737;SDS011;11536;50.860;4.286;2023-06-14T03:52:17;11.35;;;5.25;;
22737;SDS011;11536;50.860;4.286;2023-06-14T03:54:43;11.50;;;5.03;;
22737;SDS011;11536;50.860;4.286;2023-06-14T03:57:09;10.18;;;5.60;;
22737;SDS011;11536;50.860;4.286;2023-06-14T03:59:35;9.77;;;5.53;;
22737;SDS011;11536;50.860;4.286;2023-06-14T04:02:01;9.55;;;5.68;;
22737;SDS011;11536;50.860;4.286;2023-06-14T04:04:27;9.57;;;5.07;;
22737;SDS011;11536;50.860;4.286;2023-06-14T04:06:55;9.68;;;5.35;;
22737;SDS011;11536;50.860;4.286;2023-06-14T04:09:22;9.25;;;4.97;;
22737;SDS011;11536;50.860;4.286;2023-06-14T04:11:49;10.38;;;5.35;;
22737;SDS011;11536;50.860;4.286;2023-06-14T04:14:21;9.27;;;5.28;;
22737;SDS011;11536;50.860;4.286;2023-06-14T04:16:47;10.05;;;5.28;;
22737;SDS011;11536;50.860;4.286;2023-06-14T04:19:13;8.38;;;5.00;;
22737;SDS011;11536;50.860;4.286;2023-06-14T04:21:39;9.35;;;4.93;;
22737;SDS011;11536;50.860;4.286;2023-06-14T04:24:05;10.10;;;5.45;;
22737;SDS011;11536;50.860;4.286;2023-06-14T04:26:31;9.52;;;5.50;;
22737;SDS011;11536;50.860;4.286;2023-06-14T04:28:58;10.40;;;5.43;;
22737;SDS011;11536;50.860;4.286;2023-06-14T04:31:30;8.50;;;5.35;;
22737;SDS011;11536;50.860;4.286;2023-06-14T04:33:59;10.55;;;5.18;;
22737;SDS011;11536;50.860;4.286;2023-06-14T04:36:25;12.68;;;6.28;;
22737;SDS011;11536;50.860;4.286;2023-06-14T04:38:53;12.57;;;5.90;;
22737;SDS011;11536;50.860;4.286;2023-06-14T04:41:21;12.05;;;6.55;;
22737;SDS011;11536;50.860;4.286;2023-06-14T04:43:48;8.63;;;5.75;;
22737;SDS011;11536;50.860;4.286;2023-06-14T04:46:14;12.32;;;5.57;;
22737;SDS011;11536;50.860;4.286;2023-06-14T04:48:40;11.25;;;5.40;;
22737;SDS011;11536;50.860;4.286;2023-06-14T04:51:10;12.23;;;6.05;;
22737;SDS011;11536;50.860;4.286;2023-06-14T04:53:36;9.48;;;5.60;;
22737;SDS011;11536;50.860;4.286;2023-06-14T04:56:02;12.10;;;6.13;;
22737;SDS011;11536;50.860;4.286;2023-06-14T04:58:29;12.23;;;6.13;;
22737;SDS011;11536;50.860;4.286;2023-06-14T05:00:55;11.23;;;5.68;;
22737;SDS011;11536;50.860;4.286;2023-06-14T05:03:24;9.52;;;5.10;;
22737;SDS011;11536;50.860;4.286;2023-06-14T05:05:50;15.75;;;5.90;;
22737;SDS011;11536;50.860;4.286;2023-06-14T05:08:18;10.73;;;5.30;;
22737;SDS011;11536;50.860;4.286;2023-06-14T05:10:45;8.95;;;5.35;;
22737;SDS011;11536;50.860;4.286;2023-06-14T05:13:10;12.02;;;5.68;;
22737;SDS011;11536;50.860;4.286;2023-06-14T05:15:36;10.00;;;6.13;;
22737;SDS011;11536;50.860;4.286;2023-06-14T05:18:01;12.43;;;5.60;;
22737;SDS011;11536;50.860;4.286;2023-06-14T05:20:27;10.35;;;5.78;;
22737;SDS011;11536;50.860;4.286;2023-06-14T05:22:53;13.38;;;6.28;;
22737;SDS011;11536;50.860;4.286;2023-06-14T05:25:19;10.05;;;6.03;;
22737;SDS011;11536;50.860;4.286;2023-06-14T05:27:46;10.95;;;6.43;;
22737;SDS011;11536;50.860;4.286;2023-06-14T05:30:12;11.25;;;5.68;;
22737;SDS011;11536;50.860;4.286;2023-06-14T05:32:38;10.75;;;6.10;;
22737;SDS011;11536;50.860;4.286;2023-06-14T05:35:04;11.43;;;5.90;;
22737;SDS011;11536;50.860;4.286;2023-06-14T05:37:31;10.52;;;5.32;;
22737;SDS011;11536;50.860;4.286;2023-06-14T05:39:56;11.48;;;6.22;;
22737;SDS011;11536;50.860;4.286;2023-06-14T05:42:22;11.20;;;5.70;;
22737;SDS011;11536;50.860;4.286;2023-06-14T05:45:00;9.75;;;5.43;;
22737;SDS011;11536;50.860;4.286;2023-06-14T05:47:26;16.20;;;6.60;;
22737;SDS011;11536;50.860;4.286;2023-06-14T05:49:52;13.02;;;6.05;;
22737;SDS011;11536;50.860;4.286;2023-06-14T05:52:20;12.00;;;6.25;;
22737;SDS011;11536;50.860;4.286;2023-06-14T05:54:45;12.60;;;6.03;;
22737;SDS011;11536;50.860;4.286;2023-06-14T05:57:11;10.43;;;5.75;;
22737;SDS011;11536;50.860;4.286;2023-06-14T05:59:37;10.38;;;5.45;;
22737;SDS011;11536;50.860;4.286;2023-06-14T06:02:02;11.20;;;5.90;;
22737;SDS011;11536;50.860;4.286;2023-06-14T06:04:28;11.93;;;6.00;;
22737;SDS011;11536;50.860;4.286;2023-06-14T06:06:54;11.60;;;5.97;;
22737;SDS011;11536;50.860;4.286;2023-06-14T06:09:19;14.80;;;5.50;;
22737;SDS011;11536;50.860;4.286;2023-06-14T06:11:45;12.80;;;5.72;;
22737;SDS011;11536;50.860;4.286;2023-06-14T06:14:10;10.35;;;5.47;;
22737;SDS011;11536;50.860;4.286;2023-06-14T06:16:36;13.15;;;5.55;;
22737;SDS011;11536;50.860;4.286;2023-06-14T06:19:02;9.88;;;5.53;;
22737;SDS011;11536;50.860;4.286;2023-06-14T06:21:27;10.75;;;5.43;;
22737;SDS011;11536;50.860;4.286;2023-06-14T06:23:53;9.40;;;5.45;;
22737;SDS011;11536;50.860;4.286;2023-06-14T06:26:21;11.65;;;6.30;;
22737;SDS011;11536;50.860;4.286;2023-06-14T06:28:47;12.57;;;5.88;;
22737;SDS011;11536;50.860;4.286;2023-06-14T06:31:13;14.00;;;5.57;;
22737;SDS011;11536;50.860;4.286;2023-06-14T06:33:39;9.98;;;5.95;;
22737;SDS011;11536;50.860;4.286;2023-06-14T06:36:05;12.93;;;5.88;;
22737;SDS011;11536;50.860;4.286;2023-06-14T06:38:30;13.93;;;5.35;;
22737;SDS011;11536;50.860;4.286;2023-06-14T06:40:56;12.52;;;5.63;;
22737;SDS011;11536;50.860;4.286;2023-06-14T06:43:22;11.02;;;5.80;;
22737;SDS011;11536;50.860;4.286;2023-06-14T06:45:47;9.13;;;5.15;;
22737;SDS011;11536;50.860;4.286;2023-06-14T06:48:13;10.20;;;4.60;;
22737;SDS011;11536;50.860;4.286;2023-06-14T06:50:39;12.05;;;5.00;;
22737;SDS011;11536;50.860;4.286;2023-06-14T06:53:04;11.80;;;5.88;;
22737;SDS011;11536;50.860;4.286;2023-06-14T06:55:31;10.02;;;5.03;;
22737;SDS011;11536;50.860;4.286;2023-06-14T06:57:57;8.20;;;5.07;;
22737;SDS011;11536;50.860;4.286;2023-06-14T07:00:22;9.38;;;5.30;;
22737;SDS011;11536;50.860;4.286;2023-06-14T07:02:48;10.13;;;5.35;;
22737;SDS011;11536;50.860;4.286;2023-06-14T07:05:14;11.45;;;4.97;;
22737;SDS011;11536;50.860;4.286;2023-06-14T07:07:40;11.43;;;5.53;;
22737;SDS011;11536;50.860;4.286;2023-06-14T07:10:05;10.32;;;4.90;;
22737;SDS011;11536;50.860;4.286;2023-06-14T07:12:32;12.43;;;4.93;;
22737;SDS011;11536;50.860;4.286;2023-06-14T07:15:00;10.80;;;4.50;;
22737;SDS011;11536;50.860;4.286;2023-06-14T07:17:26;11.60;;;5.03;;
22737;SDS011;11536;50.860;4.286;2023-06-14T07:19:52;9.43;;;4.60;;
22737;SDS011;11536;50.860;4.286;2023-06-14T07:22:18;8.95;;;4.57;;
22737;SDS011;11536;50.860;4.286;2023-06-14T07:24:44;10.00;;;5.10;;
22737;SDS011;11536;50.860;4.286;2023-06-14T07:27:09;11.35;;;4.32;;
22737;SDS011;11536;50.860;4.286;2023-06-14T07:29:36;13.70;;;5.50;;
22737;SDS011;11536;50.860;4.286;2023-06-14T07:32:02;8.95;;;5.07;;
22737;SDS011;11536;50.860;4.286;2023-06-14T07:34:27;27.67;;;6.63;;
22737;SDS011;11536;50.860;4.286;2023-06-14T07:36:53;12.35;;;5.20;;
22737;SDS011;11536;50.860;4.286;2023-06-14T07:39:19;10.48;;;4.53;;
22737;SDS011;11536;50.860;4.286;2023-06-14T07:41:45;11.25;;;4.72;;
22737;SDS011;11536;50.860;4.286;2023-06-14T07:44:10;10.02;;;4.78;;
22737;SDS011;11536;50.860;4.286;2023-06-14T07:46:37;11.40;;;4.88;;
22737;SDS011;11536;50.860;4.286;2023-06-14T07:49:03;11.75;;;4.97;;
22737;SDS011;11536;50.860;4.286;2023-06-14T07:51:29;8.55;;;4.97;;
22737;SDS011;11536;50.860;4.286;2023-06-14T07:53:54;10.20;;;4.60;;
22737;SDS011;11536;50.860;4.286;2023-06-14T07:56:21;10.45;;;5.13;;
22737;SDS011;11536;50.860;4.286;2023-06-14T07:58:48;8.48;;;4.25;;
22737;SDS011;11536;50.860;4.286;2023-06-14T08:01:13;8.77;;;4.70;;
22737;SDS011;11536;50.860;4.286;2023-06-14T08:03:40;14.23;;;5.18;;
22737;SDS011;11536;50.860;4.286;2023-06-14T08:06:06;6.95;;;4.18;;
22737;SDS011;11536;50.860;4.286;2023-06-14T08:08:32;9.88;;;4.35;;
22737;SDS011;11536;50.860;4.286;2023-06-14T08:10:58;9.88;;;4.35;;
22737;SDS011;11536;50.860;4.286;2023-06-14T08:13:23;7.68;;;4.70;;
22737;SDS011;11536;50.860;4.286;2023-06-14T08:15:49;8.70;;;4.22;;
22737;SDS011;11536;50.860;4.286;2023-06-14T08:18:15;9.15;;;3.72;;
22737;SDS011;11536;50.860;4.286;2023-06-14T08:20:41;8.30;;;4.35;;
22737;SDS011;11536;50.860;4.286;2023-06-14T08:23:06;9.05;;;4.43;;
22737;SDS011;11536;50.860;4.286;2023-06-14T08:25:33;9.75;;;4.55;;
22737;SDS011;11536;50.860;4.286;2023-06-14T08:27:58;8.35;;;4.32;;
22737;SDS011;11536;50.860;4.286;2023-06-14T08:30:24;7.55;;;4.22;;
22737;SDS011;11536;50.860;4.286;2023-06-14T08:32:50;10.77;;;4.03;;
22737;SDS011;11536;50.860;4.286;2023-06-14T08:35:16;10.23;;;4.30;;
22737;SDS011;11536;50.860;4.286;2023-06-14T08:37:43;12.20;;;4.22;;
22737;SDS011;11536;50.860;4.286;2023-06-14T08:40:13;10.63;;;4.07;;
22737;SDS011;11536;50.860;4.286;2023-06-14T08:46:09;11.15;;;4.30;;
22737;SDS011;11536;50.860;4.286;2023-06-14T08:48:37;7.70;;;3.88;;
22737;SDS011;11536;50.860;4.286;2023-06-14T08:51:04;7.95;;;4.00;;
22737;SDS011;11536;50.860;4.286;2023-06-14T08:53:31;7.97;;;4.13;;
22737;SDS011;11536;50.860;4.286;2023-06-14T08:55:59;8.52;;;3.95;;
22737;SDS011;11536;50.860;4.286;2023-06-14T08:58:27;9.82;;;4.50;;
22737;SDS011;11536;50.860;4.286;2023-06-14T09:00:56;7.22;;;4.22;;
22737;SDS011;11536;50.860;4.286;2023-06-14T09:03:23;8.88;;;4.97;;
22737;SDS011;11536;50.860;4.286;2023-06-14T09:05:54;10.63;;;4.30;;
22737;SDS011;11536;50.860;4.286;2023-06-14T09:08:21;8.90;;;4.30;;
22737;SDS011;11536;50.860;4.286;2023-06-14T09:10:48;8.63;;;3.75;;
22737;SDS011;11536;50.860;4.286;2023-06-14T09:13:14;10.00;;;4.57;;
22737;SDS011;11536;50.860;4.286;2023-06-14T09:15:40;12.32;;;4.25;;
22737;SDS011;11536;50.860;4.286;2023-06-14T09:18:05;7.72;;;4.63;;
22737;SDS011;11536;50.860;4.286;2023-06-14T09:20:32;9.77;;;4.32;;
22737;SDS011;11536;50.860;4.286;2023-06-14T09:22:57;8.25;;;4.18;;
22737;SDS011;11536;50.860;4.286;2023-06-14T09:25:23;8.75;;;4.55;;
22737;SDS011;11536;50.860;4.286;2023-06-14T09:27:51;8.15;;;4.05;;
22737;SDS011;11536;50.860;4.286;2023-06-14T09:30:16;7.35;;;4.00;;
22737;SDS011;11536;50.860;4.286;2023-06-14T09:32:45;8.05;;;4.82;;
22737;SDS011;11536;50.860;4.286;2023-06-14T09:35:11;10.30;;;4.40;;
22737;SDS011;11536;50.860;4.286;2023-06-14T09:37:37;8.90;;;4.30;;
22737;SDS011;11536;50.860;4.286;2023-06-14T09:40:04;12.02;;;5.05;;
22737;SDS011;11536;50.860;4.286;2023-06-14T09:42:30;11.13;;;4.88;;
22737;SDS011;11536;50.860;4.286;2023-06-14T09:44:56;8.63;;;4.43;;
22737;SDS011;11536;50.860;4.286;2023-06-14T09:47:24;13.05;;;4.65;;
22737;SDS011;11536;50.860;4.286;2023-06-14T09:49:50;11.13;;;5.00;;
22737;SDS011;11536;50.860;4.286;2023-06-14T09:52:20;28.20;;;5.75;;
22737;SDS011;11536;50.860;4.286;2023-06-14T09:54:46;10.70;;;4.85;;
22737;SDS011;11536;50.860;4.286;2023-06-14T09:57:13;8.23;;;4.40;;
22737;SDS011;11536;50.860;4.286;2023-06-14T09:59:41;16.58;;;5.28;;
22737;SDS011;11536;50.860;4.286;2023-06-14T10:02:24;8.82;;;4.38;;
22737;SDS011;11536;50.860;4.286;2023-06-14T10:04:58;9.48;;;4.53;;
22737;SDS011;11536;50.860;4.286;2023-06-14T10:07:35;9.23;;;4.03;;
22737;SDS011;11536;50.860;4.286;2023-06-14T10:10:09;9.75;;;4.07;;
22737;SDS011;11536;50.860;4.286;2023-06-14T10:12:35;10.93;;;4.72;;
22737;SDS011;11536;50.860;4.286;2023-06-14T10:15:01;10.00;;;4.40;;
22737;SDS011;11536;50.860;4.286;2023-06-14T10:20:10;6.35;;;3.67;;
22737;SDS011;11536;50.860;4.286;2023-06-14T10:22:58;9.23;;;4.80;;
22737;SDS011;11536;50.860;4.286;2023-06-14T10:25:32;10.88;;;4.43;;
22737;SDS011;11536;50.860;4.286;2023-06-14T10:28:41;7.63;;;4.20;;
22737;SDS011;11536;50.860;4.286;2023-06-14T10:33:29;7.22;;;3.70;;
22737;SDS011;11536;50.860;4.286;2023-06-14T10:36:06;6.88;;;3.92;;
22737;SDS011;11536;50.860;4.286;2023-06-14T10:38:33;33.30;;;5.90;;
22737;SDS011;11536;50.860;4.286;2023-06-14T10:41:00;7.80;;;4.10;;
22737;SDS011;11536;50.860;4.286;2023-06-14T10:43:26;7.38;;;4.03;;
22737;SDS011;11536;50.860;4.286;2023-06-14T10:48:44;6.53;;;4.00;;
22737;SDS011;11536;50.860;4.286;2023-06-14T10:51:19;9.45;;;4.10;;
22737;SDS011;11536;50.860;4.286;2023-06-14T10:53:49;10.18;;;4.80;;
22737;SDS011;11536;50.860;4.286;2023-06-14T10:56:28;6.50;;;3.72;;
22737;SDS011;11536;50.860;4.286;2023-06-14T10:58:56;6.32;;;3.63;;
22737;SDS011;11536;50.860;4.286;2023-06-14T11:01:36;7.05;;;3.42;;
22737;SDS011;11536;50.860;4.286;2023-06-14T11:04:07;8.15;;;3.30;;
22737;SDS011;11536;50.860;4.286;2023-06-14T11:06:49;8.75;;;3.78;;
22737;SDS011;11536;50.860;4.286;2023-06-14T11:12:40;9.35;;;3.53;;
22737;SDS011;11536;50.860;4.286;2023-06-14T11:15:07;9.85;;;3.40;;
22737;SDS011;11536;50.860;4.286;2023-06-14T11:17:33;8.77;;;3.72;;
22737;SDS011;11536;50.860;4.286;2023-06-14T11:20:08;6.85;;;3.60;;
22737;SDS011;11536;50.860;4.286;2023-06-14T11:22:41;8.10;;;3.58;;
22737;SDS011;11536;50.860;4.286;2023-06-14T11:25:13;5.72;;;3.25;;
22737;SDS011;11536;50.860;4.286;2023-06-14T11:27:39;7.80;;;3.33;;
22737;SDS011;11536;50.860;4.286;2023-06-14T11:30:06;8.02;;;3.20;;
22737;SDS011;11536;50.860;4.286;2023-06-14T11:32:34;8.43;;;3.30;;
22737;SDS011;11536;50.860;4.286;2023-06-14T11:35:02;7.70;;;3.45;;
22737;SDS011;11536;50.860;4.286;2023-06-14T11:37:33;6.15;;;3.25;;
22737;SDS011;11536;50.860;4.286;2023-06-14T11:40:01;7.15;;;3.53;;
22737;SDS011;11536;50.860;4.286;2023-06-14T11:42:29;7.70;;;3.22;;
22737;SDS011;11536;50.860;4.286;2023-06-14T11:44:55;7.95;;;3.42;;
22737;SDS011;11536;50.860;4.286;2023-06-14T11:47:21;6.30;;;3.20;;
22737;SDS011;11536;50.860;4.286;2023-06-14T11:49:48;7.85;;;3.70;;
22737;SDS011;11536;50.860;4.286;2023-06-14T11:52:13;7.22;;;3.50;;
22737;SDS011;11536;50.860;4.286;2023-06-14T11:54:40;9.68;;;3.78;;
22737;SDS011;11536;50.860;4.286;2023-06-14T11:57:06;5.85;;;2.92;;
22737;SDS011;11536;50.860;4.286;2023-06-14T11:59:41;6.13;;;3.03;;
22737;SDS011;11536;50.860;4.286;2023-06-14T12:02:09;6.38;;;3.08;;
22737;SDS011;11536;50.860;4.286;2023-06-14T12:04:35;6.70;;;3.72;;
22737;SDS011;11536;50.860;4.286;2023-06-14T12:10:26;8.90;;;3.35;;
22737;SDS011;11536;50.860;4.286;2023-06-14T12:12:34;8.60;;;3.08;;
22737;SDS011;11536;50.860;4.286;2023-06-14T12:15:05;6.35;;;3.38;;
22737;SDS011;11536;50.860;4.286;2023-06-14T12:17:33;5.60;;;3.05;;
22737;SDS011;11536;50.860;4.286;2023-06-14T12:20:04;5.15;;;2.88;;
22737;SDS011;11536;50.860;4.286;2023-06-14T12:22:53;7.15;;;2.97;;
22737;SDS011;11536;50.860;4.286;2023-06-14T12:25:34;6.57;;;2.90;;
22737;SDS011;11536;50.860;4.286;2023-06-14T12:28:08;9.88;;;3.33;;
22737;SDS011;11536;50.860;4.286;2023-06-14T12:30:37;8.00;;;3.42;;
22737;SDS011;11536;50.860;4.286;2023-06-14T12:33:04;6.10;;;2.97;;
22737;SDS011;11536;50.860;4.286;2023-06-14T12:35:31;8.63;;;3.00;;
22737;SDS011;11536;50.860;4.286;2023-06-14T12:37:57;9.85;;;3.38;;
22737;SDS011;11536;50.860;4.286;2023-06-14T12:40:22;11.13;;;3.55;;
22737;SDS011;11536;50.860;4.286;2023-06-14T12:42:48;14.07;;;3.17;;
22737;SDS011;11536;50.860;4.286;2023-06-14T12:45:14;14.65;;;3.83;;
22737;SDS011;11536;50.860;4.286;2023-06-14T12:47:40;7.57;;;3.08;;
22737;SDS011;11536;50.860;4.286;2023-06-14T12:50:07;7.82;;;3.10;;
22737;SDS011;11536;50.860;4.286;2023-06-14T12:52:33;7.15;;;3.22;;
22737;SDS011;11536;50.860;4.286;2023-06-14T12:55:04;9.45;;;3.50;;
22737;SDS011;11536;50.860;4.286;2023-06-14T12:57:30;7.28;;;2.80;;
22737;SDS011;11536;50.860;4.286;2023-06-14T12:59:55;7.00;;;2.97;;
22737;SDS011;11536;50.860;4.286;2023-06-14T13:02:21;10.05;;;3.50;;
22737;SDS011;11536;50.860;4.286;2023-06-14T13:04:48;6.65;;;3.50;;
22737;SDS011;11536;50.860;4.286;2023-06-14T13:07:14;6.78;;;2.85;;
22737;SDS011;11536;50.860;4.286;2023-06-14T13:09:40;5.95;;;3.20;;
22737;SDS011;11536;50.860;4.286;2023-06-14T13:12:06;7.05;;;2.33;;
22737;SDS011;11536;50.860;4.286;2023-06-14T13:14:32;5.95;;;2.70;;
22737;SDS011;11536;50.860;4.286;2023-06-14T13:16:58;6.13;;;2.63;;
22737;SDS011;11536;50.860;4.286;2023-06-14T13:19:24;4.90;;;2.22;;
22737;SDS011;11536;50.860;4.286;2023-06-14T13:21:50;4.30;;;2.50;;
22737;SDS011;11536;50.860;4.286;2023-06-14T13:24:15;7.15;;;2.25;;
22737;SDS011;11536;50.860;4.286;2023-06-14T13:26:41;6.35;;;2.50;;
22737;SDS011;11536;50.860;4.286;2023-06-14T13:29:07;5.65;;;2.67;;
22737;SDS011;11536;50.860;4.286;2023-06-14T13:31:33;5.25;;;2.72;;
22737;SDS011;11536;50.860;4.286;2023-06-14T13:33:58;7.55;;;2.47;;
22737;SDS011;11536;50.860;4.286;2023-06-14T13:36:24;10.82;;;2.65;;
22737;SDS011;11536;50.860;4.286;2023-06-14T13:38:49;10.43;;;2.70;;
22737;SDS011;11536;50.860;4.286;2023-06-14T13:41:17;5.78;;;2.78;;
22737;SDS011;11536;50.860;4.286;2023-06-14T13:43:43;7.75;;;2.83;;
22737;SDS011;11536;50.860;4.286;2023-06-14T13:46:08;11.15;;;2.78;;
22737;SDS011;11536;50.860;4.286;2023-06-14T13:48:34;4.45;;;2.20;;
22737;SDS011;11536;50.860;4.286;2023-06-14T13:51:00;7.28;;;2.17;;
22737;SDS011;11536;50.860;4.286;2023-06-14T13:53:29;5.13;;;2.15;;
22737;SDS011;11536;50.860;4.286;2023-06-14T13:55:57;7.40;;;2.55;;
22737;SDS011;11536;50.860;4.286;2023-06-14T13:58:22;10.13;;;2.55;;
22737;SDS011;11536;50.860;4.286;2023-06-14T14:00:49;6.03;;;2.28;;
22737;SDS011;11536;50.860;4.286;2023-06-14T14:03:14;6.72;;;2.00;;
22737;SDS011;11536;50.860;4.286;2023-06-14T14:05:40;11.70;;;2.35;;
22737;SDS011;11536;50.860;4.286;2023-06-14T14:08:06;7.78;;;2.40;;
22737;SDS011;11536;50.860;4.286;2023-06-14T14:10:35;5.43;;;2.22;;
22737;SDS011;11536;50.860;4.286;2023-06-14T14:13:00;3.58;;;1.80;;
22737;SDS011;11536;50.860;4.286;2023-06-14T14:15:27;4.57;;;1.77;;
22737;SDS011;11536;50.860;4.286;2023-06-14T14:17:55;5.55;;;2.00;;
22737;SDS011;11536;50.860;4.286;2023-06-14T14:20:22;4.82;;;1.77;;
22737;SDS011;11536;50.860;4.286;2023-06-14T14:22:48;9.23;;;2.45;;
22737;SDS011;11536;50.860;4.286;2023-06-14T14:25:18;6.13;;;1.90;;
22737;SDS011;11536;50.860;4.286;2023-06-14T14:27:43;6.38;;;1.70;;
22737;SDS011;11536;50.860;4.286;2023-06-14T14:30:09;4.97;;;1.73;;
22737;SDS011;11536;50.860;4.286;2023-06-14T14:32:35;3.13;;;1.30;;
22737;SDS011;11536;50.860;4.286;2023-06-14T14:35:01;6.07;;;1.45;;
22737;SDS011;11536;50.860;4.286;2023-06-14T14:37:26;3.63;;;1.30;;
22737;SDS011;11536;50.860;4.286;2023-06-14T14:39:52;5.95;;;1.40;;
22737;SDS011;11536;50.860;4.286;2023-06-14T14:42:17;3.38;;;1.15;;
22737;SDS011;11536;50.860;4.286;2023-06-14T14:44:44;4.05;;;1.10;;
22737;SDS011;11536;50.860;4.286;2023-06-14T14:47:12;4.68;;;1.52;;
22737;SDS011;11536;50.860;4.286;2023-06-14T14:49:38;3.58;;;1.05;;
22737;SDS011;11536;50.860;4.286;2023-06-14T14:52:03;3.63;;;1.23;;
22737;SDS011;11536;50.860;4.286;2023-06-14T14:54:29;4.22;;;1.10;;
22737;SDS011;11536;50.860;4.286;2023-06-14T14:56:55;2.67;;;0.90;;
22737;SDS011;11536;50.860;4.286;2023-06-14T14:59:21;3.55;;;1.00;;
22737;SDS011;11536;50.860;4.286;2023-06-14T15:01:49;2.83;;;1.20;;
22737;SDS011;11536;50.860;4.286;2023-06-14T15:04:15;3.00;;;0.88;;
22737;SDS011;11536;50.860;4.286;2023-06-14T15:06:41;3.95;;;1.15;;